Time;durP1;ratioP1;P1;durP2;ratioP2;P2;SDS_P1;SDS_P2;PMS_P1;PMS_P2;Temp;Humidity;BMP_temperature;BMP_pressure;BME280_temperature;BME280_humidity;BME280_pressure;Samples;Min_cycle;Max_cycle;Signal;HPM_P1;HPM_P2
2022/10/21 00:00:22;;;;;;;23.27;8.87;;;;;;;5.83;100.00;101129.89;5269131;55;1139162;-72
2022/10/21 00:05:30;;;;;;;17.17;8.33;;;;;;;5.82;100.00;101129.49;5318164;55;1139103;-70
2022/10/21 00:10:36;;;;;;;20.47;8.87;;;;;;;5.81;100.00;101130.41;5318489;55;1136997;-73
2022/10/21 00:15:42;;;;;;;19.17;7.43;;;;;;;5.76;100.00;101131.12;5318164;55;1137162;-70
2022/10/21 00:20:48;;;;;;;15.13;7.87;;;;;;;5.73;100.00;101131.27;5318546;55;1139646;-72
2022/10/21 00:25:58;;;;;;;17.37;8.60;;;;;;;5.70;100.00;101110.86;5318266;55;1139466;-70
2022/10/21 00:31:11;;;;;;;16.93;8.63;;;;;;;5.63;100.00;101103.77;5313871;55;1137158;-72
2022/10/21 00:36:16;;;;;;;18.03;8.57;;;;;;;5.60;100.00;101088.16;5307729;55;1135165;-73
2022/10/21 00:41:22;;;;;;;16.80;10.20;;;;;;;5.55;100.00;101070.01;5307897;55;1141137;-72
2022/10/21 00:46:35;;;;;;;17.83;8.27;;;;;;;5.48;100.00;101035.83;5232657;55;1143085;-71
2022/10/21 00:51:41;;;;;;;13.80;8.33;;;;;;;5.45;100.00;101035.12;5123771;57;1138872;-71
2022/10/21 00:56:49;;;;;;;17.97;8.00;;;;;;;5.41;100.00;101037.49;5126675;57;1139129;-72
2022/10/21 01:01:55;;;;;;;15.57;8.50;;;;;;;5.42;100.00;101033.48;5176721;56;1141176;-71
2022/10/21 01:07:03;;;;;;;23.70;10.20;;;;;;;5.37;100.00;101024.98;5218558;56;1141026;-70
2022/10/21 01:12:13;;;;;;;21.27;10.03;;;;;;;5.32;100.00;101019.13;5219107;56;1141370;-73
2022/10/21 01:17:42;;;;;;;18.67;8.20;;;;;;;5.27;100.00;101032.45;5218969;56;1141462;-72
2022/10/21 01:23:21;;;;;;;16.53;8.87;;;;;;;5.30;100.00;101042.80;5219009;56;1141373;-72
2022/10/21 01:29:10;;;;;;;23.43;10.93;;;;;;;5.29;100.00;101031.06;5041898;57;1139383;-70
2022/10/21 01:34:55;;;;;;;18.17;9.33;;;;;;;5.24;100.00;101018.62;5088346;57;1141308;-71
2022/10/21 01:40:26;;;;;;;20.43;10.67;;;;;;;5.16;100.00;100995.41;5126751;57;1137378;-71
2022/10/21 01:45:46;;;;;;;27.40;10.90;;;;;;;5.10;100.00;100983.88;5077993;57;1141040;-72
2022/10/21 01:51:01;;;;;;;23.27;11.23;;;;;;;5.00;100.00;100991.80;5032888;58;1139128;-70
2022/10/21 01:56:09;;;;;;;20.70;9.20;;;;;;;4.96;100.00;101015.14;4967902;59;1139270;-72
2022/10/21 02:01:18;;;;;;;20.20;10.17;;;;;;;4.98;100.00;101001.97;5107954;56;1138986;-71
2022/10/21 02:06:25;;;;;;;21.90;10.83;;;;;;;4.94;100.00;101002.56;5252264;55;1138957;-71
2022/10/21 02:11:35;;;;;;;25.70;10.03;;;;;;;4.91;100.00;100994.38;5252153;55;1137105;-72
2022/10/21 02:16:43;;;;;;;23.03;11.93;;;;;;;4.85;100.00;100956.69;5252366;55;1143026;-72
2022/10/21 02:21:52;;;;;;;20.00;11.30;;;;;;;4.82;100.00;100959.44;5238619;55;1140990;-72
2022/10/21 02:26:58;;;;;;;17.33;9.50;;;;;;;4.75;100.00;100963.71;5252351;55;1141023;-71
2022/10/21 02:32:26;;;;;;;22.43;10.27;;;;;;;4.72;100.00;100956.02;5268432;55;1139097;-71
2022/10/21 02:37:44;;;;;;;18.40;10.13;;;;;;;4.76;100.00;100959.71;5304955;55;1143151;-70
2022/10/21 02:42:57;;;;;;;25.82;11.15;;;;;;;4.76;100.00;100970.66;5288108;55;1141040;-71
2022/10/21 02:48:03;;;;;;;23.93;10.33;;;;;;;4.78;100.00;100974.91;5211901;56;1141087;-71
2022/10/21 02:53:11;;;;;;;20.80;10.13;;;;;;;4.75;100.00;100968.95;5161398;56;1141053;-72
2022/10/21 02:58:17;;;;;;;20.03;10.57;;;;;;;4.69;100.00;100960.94;5135115;55;1143196;-71
2022/10/21 03:03:23;;;;;;;22.02;11.55;;;;;;;4.71;100.00;100958.25;5305120;55;1141600;-71
2022/10/21 03:08:29;;;;;;;18.90;10.43;;;;;;;4.70;100.00;100944.30;5208825;55;1141036;-69
2022/10/21 03:13:35;;;;;;;17.57;10.03;;;;;;;4.68;100.00;100933.49;5177121;55;1141275;-70
2022/10/21 03:18:40;;;;;;;21.87;11.13;;;;;;;4.63;100.00;100920.59;5169144;56;1143279;-73
2022/10/21 03:23:46;;;;;;;20.33;10.80;;;;;;;4.60;100.00;100918.97;5184771;56;1143090;-71
2022/10/21 03:28:52;;;;;;;17.23;11.03;;;;;;;4.56;100.00;100913.97;5216604;56;1141331;-70
2022/10/21 03:33:57;;;;;;;17.93;10.70;;;;;;;4.56;100.00;100921.36;5223551;56;1141039;-72
2022/10/21 03:39:03;;;;;;;23.17;10.83;;;;;;;4.65;100.00;100921.84;5229524;56;1143104;-72
2022/10/21 03:44:09;;;;;;;21.37;12.00;;;;;;;4.70;100.00;100914.63;5220505;56;1143198;-72
2022/10/21 03:49:15;;;;;;;16.70;9.80;;;;;;;4.65;100.00;100908.28;5200890;56;1141223;-74
2022/10/21 03:54:21;;;;;;;20.73;10.43;;;;;;;4.64;100.00;100906.58;5212888;55;1139257;-71
2022/10/21 03:59:27;;;;;;;19.73;11.40;;;;;;;4.64;100.00;100891.33;5247066;55;1141375;-70
2022/10/21 04:04:32;;;;;;;21.67;12.13;;;;;;;4.60;100.00;100884.91;5073323;58;1143117;-74
2022/10/21 04:09:38;;;;;;;20.67;12.00;;;;;;;4.59;100.00;100884.52;5132075;57;1141063;-73
2022/10/21 04:14:43;;;;;;;21.87;11.70;;;;;;;4.59;100.00;100883.21;5065562;57;1141096;-72
2022/10/21 04:19:49;;;;;;;19.20;11.67;;;;;;;4.63;100.00;100878.69;5196799;56;1143140;-72
2022/10/21 04:24:55;;;;;;;21.10;12.37;;;;;;;4.63;100.00;100853.80;5188348;56;1143101;-72
2022/10/21 04:30:01;;;;;;;25.70;13.67;;;;;;;4.59;100.00;100847.84;5225129;56;1141245;-74
2022/10/21 04:35:07;;;;;;;25.17;12.67;;;;;;;4.57;100.00;100846.25;5223466;56;1141039;-74
2022/10/21 04:40:13;;;;;;;22.87;11.27;;;;;;;4.57;100.00;100839.70;5134183;56;1140958;-74
2022/10/21 04:45:19;;;;;;;22.93;12.13;;;;;;;4.56;100.00;100821.83;5221243;56;1143303;-72
2022/10/21 04:50:27;;;;;;;24.23;12.97;;;;;;;4.56;100.00;100811.81;5278335;55;1141235;-74
2022/10/21 04:55:33;;;;;;;24.40;11.80;;;;;;;4.55;100.00;100800.94;5228371;56;1139229;-73
2022/10/21 05:00:38;;;;;;;24.77;12.20;;;;;;;4.57;100.00;100782.92;5273687;55;1139012;-71
2022/10/21 05:05:45;;;;;;;24.20;13.03;;;;;;;4.58;100.00;100766.75;5318174;55;1141044;-72
2022/10/21 05:10:59;;;;;;;20.43;12.27;;;;;;;4.57;100.00;100766.36;5318124;55;1139177;-73
2022/10/21 05:16:07;;;;;;;21.90;12.13;;;;;;;4.58;100.00;100749.73;5201330;55;1139278;-73
2022/10/21 05:21:13;;;;;;;28.43;13.23;;;;;;;4.62;100.00;100760.41;5186108;55;1140534;-73
2022/10/21 05:26:19;;;;;;;40.20;18.33;;;;;;;4.69;100.00;100786.71;5243945;55;1141464;-71
2022/10/21 05:31:25;;;;;;;104.10;34.27;;;;;;;4.74;100.00;100785.16;5229134;56;1139000;-72
2022/10/21 05:36:31;;;;;;;75.20;24.90;;;;;;;4.71;100.00;100773.54;5172905;56;1141022;-73
2022/10/21 05:41:37;;;;;;;21.87;11.80;;;;;;;4.73;100.00;100762.53;5206498;56;1138947;-74
2022/10/21 05:46:42;;;;;;;23.23;12.60;;;;;;;4.75;100.00;100727.44;5141192;56;1141023;-73
2022/10/21 05:51:48;;;;;;;23.33;12.97;;;;;;;4.79;100.00;100716.34;5196965;55;1141091;-73
2022/10/21 05:56:56;;;;;;;28.90;16.07;;;;;;;4.87;100.00;100720.76;5182284;55;1139273;-71
2022/10/21 06:02:02;;;;;;;23.77;12.67;;;;;;;4.93;100.00;100717.80;5196433;56;1139030;-71
2022/10/21 06:07:09;;;;;;;23.97;13.87;;;;;;;4.95;100.00;100695.84;5129652;57;1141412;-73
2022/10/21 06:12:14;;;;;;;26.47;14.33;;;;;;;4.94;100.00;100683.66;5141231;57;1139565;-72
2022/10/21 06:17:20;;;;;;;21.20;12.17;;;;;;;4.92;100.00;100673.72;5141588;57;1137260;-73
2022/10/21 06:22:26;;;;;;;31.27;14.43;;;;;;;4.95;100.00;100677.49;5141579;57;1138951;-73
2022/10/21 06:27:33;;;;;;;25.10;14.23;;;;;;;5.01;100.00;100680.73;5141524;57;1143437;-71
2022/10/21 06:32:39;;;;;;;31.95;15.70;;;;;;;5.07;100.00;100663.35;5215652;56;1143306;-72
2022/10/21 06:37:45;;;;;;;24.30;13.53;;;;;;;5.10;100.00;100650.09;5239548;55;1141030;-73
2022/10/21 06:42:51;;;;;;;25.60;14.13;;;;;;;5.12;100.00;100648.23;5219838;55;1143199;-72
2022/10/21 06:47:57;;;;;;;27.67;15.10;;;;;;;5.15;100.00;100642.84;5197416;55;1143136;-73
2022/10/21 06:53:02;;;;;;;27.13;14.00;;;;;;;5.17;100.00;100633.13;5181008;56;1141066;-72
2022/10/21 06:58:08;;;;;;;26.33;12.83;;;;;;;5.23;100.00;100633.63;5188966;55;1143121;-72
2022/10/21 07:03:14;;;;;;;27.40;15.90;;;;;;;5.31;100.00;100627.98;5157178;56;1143147;-72
2022/10/21 07:08:20;;;;;;;31.40;18.43;;;;;;;5.34;100.00;100617.33;5227087;55;1143133;-72
2022/10/21 07:13:26;;;;;;;23.30;14.27;;;;;;;5.39;100.00;100624.47;5231406;55;1141369;-71
2022/10/21 07:18:33;;;;;;;22.57;12.37;;;;;;;5.46;100.00;100621.91;5243307;55;1143226;-70
2022/10/21 07:23:39;;;;;;;25.27;14.77;;;;;;;5.53;100.00;100617.15;5243241;55;1143149;-71
2022/10/21 07:28:46;;;;;;;28.67;13.77;;;;;;;5.62;100.00;100656.02;5243139;55;1143690;-71
2022/10/21 07:33:52;;;;;;;22.40;13.43;;;;;;;5.69;100.00;100707.67;5243378;55;1140990;-72
2022/10/21 07:39:03;;;;;;;23.53;13.87;;;;;;;5.74;100.00;100731.90;5243094;55;1143252;-71
2022/10/21 07:44:10;;;;;;;22.23;12.37;;;;;;;5.83;100.00;100728.76;5211588;56;1143134;-73
2022/10/21 07:49:18;;;;;;;31.10;16.80;;;;;;;5.95;100.00;100722.89;5156051;56;1143205;-73
2022/10/21 07:54:24;;;;;;;31.53;17.10;;;;;;;6.08;100.00;100716.49;5233510;55;1143404;-73
2022/10/21 07:59:30;;;;;;;30.30;18.30;;;;;;;6.14;100.00;100707.78;5210298;56;1143243;-71
2022/10/21 08:04:36;;;;;;;27.80;14.53;;;;;;;6.16;100.00;100698.05;5183749;56;1141369;-72
2022/10/21 08:09:42;;;;;;;28.87;14.07;;;;;;;6.21;100.00;100703.90;5025044;58;1143322;-74
2022/10/21 08:14:48;;;;;;;30.93;15.40;;;;;;;6.26;100.00;100683.95;5051171;58;1143321;-73
2022/10/21 08:19:55;;;;;;;32.27;16.50;;;;;;;6.33;100.00;100682.64;5042199;58;1143308;-74
2022/10/21 08:25:01;;;;;;;32.30;15.70;;;;;;;6.37;100.00;100676.29;5218866;56;1141138;-72
2022/10/21 08:30:07;;;;;;;32.47;15.37;;;;;;;6.43;100.00;100669.34;5247771;56;1143220;-72
2022/10/21 08:35:13;;;;;;;47.93;22.13;;;;;;;6.51;100.00;100664.52;5208189;56;1143362;-72
2022/10/21 08:40:19;;;;;;;40.73;22.90;;;;;;;6.57;100.00;100652.81;5127891;56;1143180;-73
2022/10/21 08:45:57;;;;;;;31.80;17.20;;;;;;;6.63;100.00;100666.41;5142569;57;1143194;-73
2022/10/21 08:51:06;;;;;;;38.30;21.03;;;;;;;6.66;100.00;100668.87;5142503;56;1141335;-72
2022/10/21 08:56:14;;;;;;;26.97;15.60;;;;;;;6.77;100.00;100676.11;5142830;56;1142482;-73
2022/10/21 09:01:24;;;;;;;29.77;18.90;;;;;;;6.88;100.00;100680.72;5111864;57;1143128;-73
2022/10/21 09:07:21;;;;;;;26.37;15.70;;;;;;;7.02;100.00;100680.77;5141892;57;1141075;-71
2022/10/21 09:12:43;;;;;;;33.23;16.30;;;;;;;7.12;100.00;100675.31;5087551;57;1141348;-73
2022/10/21 09:18:03;;;;;;;32.33;15.43;;;;;;;7.14;100.00;100664.23;5046306;58;1141210;-71
2022/10/21 09:23:50;;;;;;;42.53;20.73;;;;;;;7.22;100.00;100655.39;5132828;57;1143158;-73
2022/10/21 09:28:56;;;;;;;97.13;54.70;;;;;;;7.30;100.00;100647.89;5108759;57;1143440;-74
2022/10/21 09:34:05;;;;;;;29.60;18.90;;;;;;;7.37;100.00;100637.34;5166883;56;1143162;-73
2022/10/21 09:39:18;;;;;;;28.30;16.00;;;;;;;7.46;100.00;100620.62;5168547;56;1143215;-75
2022/10/21 09:44:24;;;;;;;39.17;17.07;;;;;;;7.58;100.00;100610.63;5159620;56;1143102;-72
2022/10/21 09:49:39;;;;;;;35.53;18.20;;;;;;;7.72;100.00;100607.95;5206664;56;1143188;-73
2022/10/21 09:54:42;;;;;;;34.07;18.17;;;;;;;7.80;100.00;100604.34;5238636;56;1143272;-71
2022/10/21 09:59:54;;;;;;;46.63;21.73;;;;;;;7.91;100.00;100598.40;5230191;56;1143041;-72
2022/10/21 10:05:01;;;;;;;26.77;14.50;;;;;;;8.08;100.00;100600.30;5117870;57;1143292;-73
2022/10/21 10:10:29;;;;;;;28.33;15.73;;;;;;;8.29;100.00;100620.41;5182497;56;1143304;-74
2022/10/21 10:15:37;;;;;;;40.30;19.13;;;;;;;8.51;100.00;100611.11;5171229;55;1143084;-72
2022/10/21 10:20:44;;;;;;;30.77;15.90;;;;;;;8.72;100.00;100595.13;5182039;55;1143179;-74
2022/10/21 10:25:52;;;;;;;27.33;12.90;;;;;;;8.92;100.00;100585.86;5179708;57;1143175;-72
2022/10/21 10:30:58;;;;;;;22.83;11.93;;;;;;;9.06;100.00;100583.09;5209112;56;1143161;-74
2022/10/21 10:36:06;;;;;;;22.93;12.30;;;;;;;9.20;100.00;100564.97;5204472;56;1143303;-74
2022/10/21 10:41:15;;;;;;;31.80;16.30;;;;;;;9.33;100.00;100552.09;5159434;56;1142798;-74
2022/10/21 10:46:32;;;;;;;46.18;19.50;;;;;;;9.43;100.00;100550.50;5242425;55;1143143;-73
2022/10/21 10:51:39;;;;;;;21.37;11.73;;;;;;;9.58;100.00;100551.66;5242435;55;1143427;-75
2022/10/21 10:56:58;;;;;;;20.77;13.70;;;;;;;9.72;100.00;100536.49;5233806;55;1141096;-75
2022/10/21 11:02:13;;;;;;;26.63;14.07;;;;;;;9.82;100.00;100522.96;5204673;55;1141070;-73
2022/10/21 11:07:43;;;;;;;42.43;20.03;;;;;;;9.86;100.00;100516.50;5196655;55;1141208;-73
2022/10/21 11:12:52;;;;;;;29.17;15.70;;;;;;;9.92;100.00;100515.69;5221977;55;1141191;-74
2022/10/21 11:18:27;;;;;;;16.30;11.20;;;;;;;9.99;100.00;100508.49;5195477;55;1141061;-74
2022/10/21 11:23:46;;;;;;;20.63;13.67;;;;;;;10.08;100.00;100528.92;5155989;57;1143546;-73
2022/10/21 11:29:05;;;;;;;16.77;11.00;;;;;;;10.16;100.00;100529.20;5151548;57;1145244;-72
2022/10/21 11:34:21;;;;;;;16.70;10.87;;;;;;;10.27;100.00;100532.86;5151493;57;1145265;-72
2022/10/21 11:39:45;;;;;;;21.70;11.70;;;;;;;10.38;100.00;100503.82;5167620;55;1145179;-73
2022/10/21 11:45:08;;;;;;;18.93;11.90;;;;;;;10.50;100.00;100504.19;5242056;55;1145285;-75
2022/10/21 11:50:27;;;;;;;18.90;11.78;;;;;;;10.62;100.00;100491.33;5063727;58;1145388;-75
2022/10/21 11:55:49;;;;;;;21.47;11.10;;;;;;;10.68;100.00;100463.09;5044394;58;1145205;-74
2022/10/21 12:01:05;;;;;;;18.23;11.40;;;;;;;10.68;100.00;100463.09;5048717;58;1145239;-75
2022/10/21 12:06:24;;;;;;;21.07;12.23;;;;;;;10.78;100.00;100456.09;5042683;58;1145332;-74
2022/10/21 12:11:43;;;;;;;20.83;11.53;;;;;;;10.81;100.00;100465.60;4989444;58;1145279;-74
2022/10/21 12:16:55;;;;;;;18.60;10.50;;;;;;;10.82;100.00;100470.77;5019663;58;1145425;-77
2022/10/21 12:22:05;;;;;;;24.33;13.27;;;;;;;10.81;100.00;100454.54;5015343;58;1143247;-75
2022/10/21 12:27:21;;;;;;;26.80;14.13;;;;;;;10.84;100.00;100441.07;5130928;56;1143252;-73
2022/10/21 12:32:37;;;;;;;21.27;13.27;;;;;;;10.92;100.00;100444.41;5198311;56;1143258;-76
2022/10/21 12:37:56;;;;;;;34.73;23.73;;;;;;;10.99;100.00;100426.25;5241079;55;1143266;-76
2022/10/21 12:43:05;;;;;;;27.47;16.83;;;;;;;10.99;100.00;100415.66;5242174;55;1144261;-73
2022/10/21 12:48:33;;;;;;;27.20;14.97;;;;;;;10.97;100.00;100411.81;5247419;55;1143184;-75
2022/10/21 12:53:59;;;;;;;27.97;16.47;;;;;;;10.97;100.00;100421.08;5243980;55;1141085;-74
2022/10/21 12:59:09;;;;;;;35.73;17.83;;;;;;;10.99;100.00;100409.89;5243823;55;1145169;-73
2022/10/21 13:04:37;;;;;;;28.33;16.77;;;;;;;10.99;100.00;100408.56;5234195;55;1145169;-73
2022/10/21 13:09:53;;;;;;;376.80;259.73;;;;;;;11.02;100.00;100399.03;5179761;55;1145479;-74
2022/10/21 13:15:21;;;;;;;47.77;25.47;;;;;;;11.09;100.00;100400.70;5212289;56;1149406;-76
2022/10/21 13:20:37;;;;;;;31.47;16.00;;;;;;;11.16;100.00;100396.58;5161200;56;1145232;-74
2022/10/21 13:25:43;;;;;;;43.93;17.93;;;;;;;11.18;100.00;100404.75;5185311;56;1145250;-75
2022/10/21 13:30:54;;;;;;;39.70;18.80;;;;;;;11.19;100.00;100405.59;5211440;56;1145483;-73
2022/10/21 13:36:09;;;;;;;50.57;21.63;;;;;;;11.26;100.00;100402.82;5228433;55;1145177;-76
2022/10/21 13:41:30;;;;;;;61.03;24.27;;;;;;;11.32;100.00;100394.35;5182534;56;1145463;-73
2022/10/21 13:46:41;;;;;;;29.47;14.50;;;;;;;11.39;100.00;100403.48;5135558;57;1145395;-76
2022/10/21 13:51:48;;;;;;;21.73;12.00;;;;;;;11.50;100.00;100415.34;5173670;56;1145309;-74
2022/10/21 13:56:54;;;;;;;24.37;13.70;;;;;;;11.59;100.00;100411.11;5220622;55;1145496;-74
2022/10/21 14:01:59;;;;;;;35.20;19.00;;;;;;;11.65;100.00;100421.17;5213919;55;1145227;-72
2022/10/21 14:07:14;;;;;;;30.27;16.63;;;;;;;11.71;100.00;100410.07;5228429;55;1145225;-71
2022/10/21 14:12:36;;;;;;;26.50;14.10;;;;;;;11.72;100.00;100415.73;5233177;55;1145351;-73
2022/10/21 14:17:46;;;;;;;22.03;11.77;;;;;;;11.77;100.00;100411.38;5166269;56;1143238;-72
2022/10/21 14:22:53;;;;;;;25.43;15.30;;;;;;;11.83;100.00;100416.17;5207394;56;1143205;-74
2022/10/21 14:28:01;;;;;;;25.80;16.33;;;;;;;11.89;100.00;100420.97;5228427;56;1143179;-75
2022/10/21 14:33:14;;;;;;;31.80;19.23;;;;;;;11.98;100.00;100424.15;5252075;55;1143296;-75
2022/10/21 14:38:31;;;;;;;23.83;13.15;;;;;;;11.93;100.00;100407.30;5218002;56;1143230;-74
2022/10/21 14:43:43;;;;;;;25.13;15.10;;;;;;;11.89;100.00;100400.61;5206657;56;1143072;-74
2022/10/21 14:48:58;;;;;;;21.40;12.90;;;;;;;11.88;100.00;100405.55;5274224;56;1143244;-74
2022/10/21 14:54:06;;;;;;;21.07;13.67;;;;;;;11.86;100.00;100407.97;5305111;55;1141219;-73
2022/10/21 14:59:31;;;;;;;20.03;12.50;;;;;;;11.82;100.00;100412.68;5291525;55;1141122;-75
2022/10/21 15:04:54;;;;;;;22.53;13.40;;;;;;;11.76;100.00;100407.92;5310897;55;1145128;-76
2022/10/21 15:10:08;;;;;;;48.58;17.98;;;;;;;11.71;100.00;100401.28;5304239;55;1145296;-75
2022/10/21 15:15:43;;;;;;;58.83;29.87;;;;;;;11.66;100.00;100402.98;5218125;56;1145221;-72
2022/10/21 15:21:00;;;;;;;38.60;19.70;;;;;;;11.61;100.00;100391.44;5258535;55;1145513;-76
2022/10/21 15:26:19;;;;;;;54.07;27.13;;;;;;;11.53;100.00;100391.74;5273157;55;1145684;-74
2022/10/21 15:31:27;;;;;;;251.10;152.27;;;;;;;11.45;100.00;100392.87;5138389;57;1145567;-73
2022/10/21 15:36:33;;;;;;;118.00;68.07;;;;;;;11.43;100.00;100390.36;5072276;58;1149389;-76
2022/10/21 15:41:40;;;;;;;62.63;37.83;;;;;;;11.43;100.00;100396.97;5142714;57;1147350;-75
2022/10/21 15:46:48;;;;;;;64.10;31.33;;;;;;;11.41;100.00;100390.13;5131448;57;1145410;-75
2022/10/21 15:51:55;;;;;;;74.33;30.70;;;;;;;11.35;100.00;100386.64;5226723;56;1145088;-75
2022/10/21 15:57:01;;;;;;;74.77;40.23;;;;;;;11.25;100.00;100374.18;5177959;56;1145298;-74
2022/10/21 16:02:11;;;;;;;74.75;41.50;;;;;;;11.18;100.00;100371.67;5210160;56;1145252;-73
2022/10/21 16:07:24;;;;;;;74.10;41.30;;;;;;;11.12;100.00;100372.67;5228417;56;1145252;-73
2022/10/21 16:12:30;;;;;;;58.67;31.40;;;;;;;11.05;100.00;100363.54;5228170;56;1145469;-73
2022/10/21 16:17:36;;;;;;;67.80;27.87;;;;;;;10.98;100.00;100365.02;5205262;56;1145261;-74
2022/10/21 16:22:42;;;;;;;54.00;28.60;;;;;;;10.94;100.00;100363.11;5183767;56;1145221;-74
2022/10/21 16:27:48;;;;;;;43.17;23.67;;;;;;;10.92;100.00;100355.29;5201660;56;1145441;-73
2022/10/21 16:32:56;;;;;;;42.17;21.07;;;;;;;10.92;100.00;100355.29;5212691;56;1143542;-74
2022/10/21 16:38:01;;;;;;;42.30;23.47;;;;;;;10.92;100.00;100361.91;5165960;55;1142999;-73
2022/10/21 16:43:07;;;;;;;37.17;20.83;;;;;;;10.91;100.00;100352.77;5202985;56;1143109;-74
2022/10/21 16:48:13;;;;;;;33.07;20.00;;;;;;;10.96;100.00;100355.05;5216268;55;1143161;-73
2022/10/21 16:53:20;;;;;;;41.27;21.77;;;;;;;11.03;100.00;100362.82;5213618;56;1143181;-73
2022/10/21 16:58:26;;;;;;;41.23;20.93;;;;;;;11.05;100.00;100352.95;5216411;56;1143357;-73
2022/10/21 17:03:33;;;;;;;39.53;20.63;;;;;;;11.03;100.00;100347.78;5216497;56;1143311;-73
2022/10/21 17:08:39;;;;;;;33.80;20.33;;;;;;;11.00;100.00;100343.25;5216593;56;1143275;-73
2022/10/21 17:13:45;;;;;;;36.33;21.17;;;;;;;10.93;100.00;100337.12;5216103;56;1143170;-73
2022/10/21 17:18:51;;;;;;;35.23;18.37;;;;;;;10.87;100.00;100336.77;5093960;57;1143285;-74
2022/10/21 17:23:59;;;;;;;31.13;19.10;;;;;;;10.85;100.00;100331.60;5195898;56;1143081;-73
2022/10/21 17:29:05;;;;;;;47.87;22.83;;;;;;;10.87;100.00;100327.52;5168714;56;1143681;-73
2022/10/21 17:34:18;;;;;;;54.03;28.40;;;;;;;10.87;100.00;100331.48;5142150;56;1143638;-73
2022/10/21 17:39:24;;;;;;;55.67;31.20;;;;;;;10.80;100.00;100313.12;5211512;56;1143443;-72
2022/10/21 17:44:30;;;;;;;56.73;26.97;;;;;;;10.76;100.00;100316.98;5174089;55;1143356;-74
2022/10/21 17:49:35;;;;;;;48.40;27.00;;;;;;;10.77;100.00;100306.75;5083581;57;1143205;-72
2022/10/21 17:54:41;;;;;;;57.93;35.10;;;;;;;10.75;100.00;100304.23;5081411;56;1141016;-73
2022/10/21 17:59:49;;;;;;;42.53;23.03;;;;;;;10.78;100.00;100291.24;5133664;56;1141074;-74
2022/10/21 18:04:55;;;;;;;38.53;21.13;;;;;;;10.79;100.00;100295.56;5150000;56;1145191;-73
2022/10/21 18:10:03;;;;;;;46.08;28.73;;;;;;;10.79;100.00;100287.63;5105642;57;1145194;-75
2022/10/21 18:15:10;;;;;;;59.47;25.53;;;;;;;10.80;100.00;100285.34;5109726;56;1145163;-72
2022/10/21 18:20:18;;;;;;;45.13;24.07;;;;;;;10.84;100.00;100278.37;5149363;56;1145432;-76
2022/10/21 18:25:25;;;;;;;57.30;28.17;;;;;;;10.86;100.00;100279.05;5149762;56;1145394;-74
2022/10/21 18:30:32;;;;;;;52.50;26.40;;;;;;;10.86;100.00;100268.47;5165354;56;1145373;-74
2022/10/21 18:35:39;;;;;;;47.37;26.67;;;;;;;10.84;100.00;100275.72;5165882;56;1145595;-73
2022/10/21 18:40:47;;;;;;;40.83;23.10;;;;;;;10.86;100.00;100286.98;5162827;56;1145245;-74
2022/10/21 18:45:55;;;;;;;87.67;46.87;;;;;;;10.88;100.00;100296.97;5166463;56;1145236;-73
2022/10/21 18:51:11;;;;;;;113.77;59.40;;;;;;;10.91;100.00;100303.81;5209370;56;1145207;-75
2022/10/21 18:56:19;;;;;;;86.43;49.27;;;;;;;10.89;100.00;100311.87;5149603;56;1147223;-76
2022/10/21 19:01:27;;;;;;;111.73;68.20;;;;;;;10.86;100.00;100307.31;5209240;55;1145390;-75
2022/10/21 19:06:38;;;;;;;86.97;43.03;;;;;;;10.83;100.00;100315.05;5143376;57;1147653;-73
2022/10/21 19:11:46;;;;;;;63.37;36.27;;;;;;;10.86;100.00;100317.41;5159359;56;1145167;-72
2022/10/21 19:16:53;;;;;;;54.90;29.57;;;;;;;10.90;100.00;100313.56;5184919;56;1145278;-73
2022/10/21 19:22:00;;;;;;;45.77;24.63;;;;;;;10.97;100.00;100316.55;5204768;55;1145420;-75
2022/10/21 19:27:08;;;;;;;51.77;28.90;;;;;;;11.00;100.00;100313.62;5210783;55;1145252;-72
2022/10/21 19:32:15;;;;;;;51.20;25.47;;;;;;;10.97;100.00;100307.77;5205208;56;1145195;-73
2022/10/21 19:37:22;;;;;;;48.93;24.10;;;;;;;10.93;100.00;100313.80;5227750;56;1145133;-75
2022/10/21 19:42:29;;;;;;;41.47;19.97;;;;;;;10.89;100.00;100322.45;5229381;56;1145713;-74
2022/10/21 19:47:36;;;;;;;42.30;20.83;;;;;;;10.87;100.00;100326.19;5228143;56;1145548;-75
2022/10/21 19:52:43;;;;;;;38.93;21.93;;;;;;;10.86;100.00;100324.51;5180669;56;1145277;-73
2022/10/21 19:57:49;;;;;;;42.70;20.27;;;;;;;10.85;100.00;100326.80;5167969;56;1145350;-73
2022/10/21 20:02:55;;;;;;;40.43;21.50;;;;;;;10.86;100.00;100323.19;5227920;56;1145220;-72
2022/10/21 20:08:01;;;;;;;135.55;76.22;;;;;;;10.88;100.00;100321.26;5223518;56;1145166;-74
2022/10/21 20:13:08;;;;;;;51.33;28.77;;;;;;;10.90;100.00;100314.04;5192731;56;1147512;-74
2022/10/21 20:18:14;;;;;;;104.25;52.15;;;;;;;10.95;100.00;100318.97;5187389;56;1145495;-73
2022/10/21 20:23:21;;;;;;;79.27;40.03;;;;;;;10.98;100.00;100325.33;5128040;57;1147637;-76
2022/10/21 20:28:28;;;;;;;74.13;38.07;;;;;;;11.00;100.00;100322.89;5121174;57;1145533;-75
2022/10/21 20:33:37;;;;;;;47.60;27.37;;;;;;;11.03;100.00;100322.64;5082986;57;1145273;-75
2022/10/21 20:38:44;;;;;;;39.77;21.33;;;;;;;11.06;100.00;100333.47;5085001;57;1143187;-73
2022/10/21 20:43:51;;;;;;;77.10;34.50;;;;;;;11.06;100.00;100323.72;5104211;57;1143185;-74
2022/10/21 20:48:56;;;;;;;56.13;27.63;;;;;;;11.07;100.00;100315.30;5114153;57;1143172;-74
2022/10/21 20:54:09;;;;;;;38.30;20.68;;;;;;;11.06;100.00;100315.78;5051417;57;1143172;-73
2022/10/21 20:59:17;;;;;;;35.73;19.27;;;;;;;11.01;100.00;100303.88;4953611;58;1143171;-75
2022/10/21 21:04:24;;;;;;;44.77;22.53;;;;;;;10.99;100.00;100298.75;5134378;57;1143294;-74
2022/10/21 21:09:30;;;;;;;34.47;21.57;;;;;;;11.00;100.00;100297.75;5141013;56;1143228;-73
2022/10/21 21:14:36;;;;;;;27.07;15.57;;;;;;;11.00;100.00;100293.78;5143054;56;1143172;-73
2022/10/21 21:19:42;;;;;;;34.27;19.33;;;;;;;11.03;100.00;100293.53;5142972;56;1143466;-74
2022/10/21 21:24:49;;;;;;;25.60;17.40;;;;;;;11.04;100.00;100291.25;5183229;57;1143208;-75
2022/10/21 21:29:55;;;;;;;35.37;20.67;;;;;;;11.04;100.00;100293.89;5074873;57;1143262;-73
2022/10/21 21:35:00;;;;;;;24.40;14.28;;;;;;;11.04;100.00;100290.41;4966390;58;1143174;-73
2022/10/21 21:40:08;;;;;;;37.90;18.63;;;;;;;11.05;100.00;100294.73;5032208;58;1143191;-73
2022/10/21 21:45:13;;;;;;;33.97;20.93;;;;;;;11.05;100.00;100285.47;4993986;58;1143425;-73
2022/10/21 21:50:19;;;;;;;32.93;20.57;;;;;;;11.07;100.00;100279.57;5155019;56;1143271;-75
2022/10/21 21:55:26;;;;;;;29.63;16.23;;;;;;;11.11;100.00;100274.38;5134218;56;1143333;-74
2022/10/21 22:00:33;;;;;;;32.00;16.73;;;;;;;11.18;100.00;100276.86;5049283;57;1141213;-75
2022/10/21 22:05:39;;;;;;;34.03;17.63;;;;;;;11.16;100.00;100270.36;5131190;57;1218301;-73
2022/10/21 22:10:45;;;;;;;24.33;16.80;;;;;;;11.16;100.00;100265.07;5132867;57;1145206;-73
2022/10/21 22:15:51;;;;;;;24.20;16.87;;;;;;;11.20;100.00;100266.98;5135697;56;1145519;-72
2022/10/21 22:20:59;;;;;;;28.03;16.23;;;;;;;11.19;100.00;100263.49;5075378;57;1145236;-73
2022/10/21 22:26:06;;;;;;;37.13;22.03;;;;;;;11.19;100.00;100255.55;5072365;58;1145178;-75
2022/10/21 22:31:15;;;;;;;30.10;20.67;;;;;;;11.22;100.00;100253.98;5149276;57;1145222;-75
2022/10/21 22:36:21;;;;;;;20.43;15.53;;;;;;;11.22;100.00;100255.30;5072363;57;1145285;-73
2022/10/21 22:41:29;;;;;;;28.40;20.12;;;;;;;11.20;100.00;100251.10;5072367;58;1145373;-73
2022/10/21 22:46:34;;;;;;;25.82;16.12;;;;;;;11.19;100.00;100246.77;5072342;58;1145262;-74